Time;durP1;ratioP1;P1;durP2;ratioP2;P2;SDS_P1;SDS_P2;PMS_P1;PMS_P2;Temp;Humidity;BMP_temperature;BMP_pressure;BME280_temperature;BME280_humidity;BME280_pressure;Samples;Min_cycle;Max_cycle;Signal;HPM_P1;HPM_P2
2021/04/18 00:00:17;;;;;;;36.90;22.40;;;10.10;99.90;;;;;;4956118;29;20102;-80
2021/04/18 00:02:44;;;;;;;31.52;21.58;;;10.00;99.90;;;;;;4938574;29;20035;-77
2021/04/18 00:05:10;;;;;;;35.15;23.08;;;10.00;99.90;;;;;;4956123;29;20094;-81
2021/04/18 00:07:36;;;;;;;34.80;22.63;;;10.00;99.90;;;;;;4955925;29;20105;-79
2021/04/18 00:10:05;;;;;;;32.63;22.42;;;10.00;99.90;;;;;;4955447;29;20035;-77
2021/04/18 00:12:30;;;;;;;33.50;23.30;;;10.10;99.90;;;;;;4955370;29;20050;-79
2021/04/18 00:14:56;;;;;;;29.58;22.23;;;10.10;99.90;;;;;;4955557;29;20027;-81
2021/04/18 00:17:22;;;;;;;34.65;21.88;;;10.10;99.90;;;;;;4955514;29;20083;-80
2021/04/18 00:19:48;;;;;;;31.75;21.33;;;10.10;99.90;;;;;;4956109;29;20040;-81
2021/04/18 00:22:13;;;;;;;33.50;21.38;;;10.10;99.90;;;;;;4956032;29;20502;-77
2021/04/18 00:24:39;;;;;;;35.05;23.45;;;10.10;99.90;;;;;;4955877;29;20115;-77
2021/04/18 00:27:05;;;;;;;32.97;22.33;;;10.10;99.90;;;;;;4956046;29;20043;-77
2021/04/18 00:29:31;;;;;;;36.00;22.73;;;10.10;99.90;;;;;;4956000;29;20055;-79
2021/04/18 00:31:57;;;;;;;33.80;22.08;;;10.10;99.90;;;;;;4955703;29;20101;-81
2021/04/18 00:34:23;;;;;;;36.45;22.42;;;10.10;99.90;;;;;;4955397;29;20452;-78
2021/04/18 00:36:49;;;;;;;33.53;22.83;;;10.10;99.90;;;;;;4955529;29;20034;-79
2021/04/18 00:39:14;;;;;;;37.22;22.95;;;10.10;99.90;;;;;;4955302;29;20122;-81
2021/04/18 00:41:40;;;;;;;40.63;22.83;;;10.10;99.90;;;;;;4955630;29;20106;-76
2021/04/18 00:44:06;;;;;;;32.75;22.90;;;10.10;99.90;;;;;;4955193;28;20086;-82
2021/04/18 00:46:32;;;;;;;36.33;21.58;;;10.10;99.90;;;;;;4955132;29;20106;-78
2021/04/18 00:48:58;;;;;;;34.25;20.77;;;10.00;99.90;;;;;;4953690;29;20373;-77
2021/04/18 00:51:23;;;;;;;32.75;22.50;;;10.10;99.90;;;;;;4955233;29;20031;-81
2021/04/18 00:53:49;;;;;;;32.08;21.08;;;10.00;99.90;;;;;;4954572;29;20066;-79
2021/04/18 00:56:15;;;;;;;33.75;21.88;;;10.00;99.90;;;;;;4955080;29;20066;-77
2021/04/18 00:58:40;;;;;;;32.70;21.35;;;10.00;99.90;;;;;;4955034;29;20028;-77
2021/04/18 01:01:07;;;;;;;35.75;23.15;;;9.90;99.90;;;;;;4954913;29;20408;-78
2021/04/18 01:03:33;;;;;;;30.52;21.25;;;9.90;99.90;;;;;;4954902;29;20558;-78
2021/04/18 01:05:59;;;;;;;31.67;21.27;;;9.90;99.90;;;;;;4955097;29;20034;-78
2021/04/18 01:08:25;;;;;;;35.05;22.48;;;9.90;99.90;;;;;;4955094;29;20028;-81
2021/04/18 01:10:51;;;;;;;31.60;21.00;;;9.90;99.90;;;;;;4954700;29;20038;-79
2021/04/18 01:13:16;;;;;;;32.65;21.65;;;9.90;99.90;;;;;;4955038;29;20043;-82
2021/04/18 01:15:42;;;;;;;36.20;22.55;;;9.90;99.90;;;;;;4953377;29;20039;-82
2021/04/18 01:18:08;;;;;;;33.92;21.98;;;9.90;99.90;;;;;;4954905;29;20083;-81
2021/04/18 01:20:33;;;;;;;29.90;20.65;;;9.90;99.90;;;;;;4955433;29;20070;-81
2021/04/18 01:22:59;;;;;;;33.22;21.30;;;9.90;99.90;;;;;;4954073;29;20042;-81
2021/04/18 01:25:25;;;;;;;33.30;21.85;;;9.80;99.90;;;;;;4954416;29;20524;-81
2021/04/18 01:27:51;;;;;;;31.38;21.48;;;9.80;99.90;;;;;;4954603;29;20035;-81
2021/04/18 01:30:28;;;;;;;30.30;20.70;;;9.80;99.90;;;;;;4954505;29;20468;-78
2021/04/18 01:32:58;;;;;;;35.70;20.50;;;9.80;99.90;;;;;;4954262;29;20046;-82
2021/04/18 01:35:24;;;;;;;30.70;20.80;;;9.80;99.90;;;;;;4959722;28;20053;-82
2021/04/18 01:37:50;;;;;;;29.92;20.95;;;9.80;99.90;;;;;;4959996;28;20088;-81
2021/04/18 01:40:19;;;;;;;32.63;21.50;;;9.80;99.90;;;;;;4966485;28;20015;-81
2021/04/18 01:42:46;;;;;;;30.02;20.30;;;9.80;99.90;;;;;;4955486;28;20442;-81
2021/04/18 01:45:13;;;;;;;33.63;20.60;;;9.70;99.90;;;;;;4963650;28;20306;-80
2021/04/18 01:47:40;;;;;;;35.35;20.65;;;9.70;99.90;;;;;;4960058;28;20551;-77
2021/04/18 01:50:09;;;;;;;37.30;22.35;;;9.70;99.90;;;;;;4954343;29;20027;-82
2021/04/18 01:52:35;;;;;;;33.08;21.25;;;9.60;99.90;;;;;;4954435;29;20447;-82
2021/04/18 01:55:01;;;;;;;32.45;21.90;;;9.60;99.90;;;;;;4954036;28;20441;-81
2021/04/18 01:57:27;;;;;;;35.10;20.83;;;9.60;99.90;;;;;;4953714;29;20572;-82
2021/04/18 01:59:53;;;;;;;31.10;19.58;;;9.60;99.90;;;;;;4953711;29;20122;-78
2021/04/18 02:02:18;;;;;;;28.70;20.83;;;9.60;99.90;;;;;;4953806;29;20031;-82
2021/04/18 02:04:44;;;;;;;26.13;19.67;;;9.60;99.90;;;;;;4953932;29;20546;-78
2021/04/18 02:07:10;;;;;;;35.22;21.15;;;9.60;99.90;;;;;;4954241;29;20035;-82
2021/04/18 02:09:36;;;;;;;30.02;20.25;;;9.60;99.90;;;;;;4954140;29;20534;-78
2021/04/18 02:12:06;;;;;;;29.58;20.17;;;9.50;99.90;;;;;;4954131;29;20031;-80
2021/04/18 02:14:34;;;;;;;29.98;19.65;;;9.50;99.90;;;;;;4954165;29;20050;-81
2021/04/18 02:17:00;;;;;;;30.42;20.30;;;9.50;99.90;;;;;;4954057;29;20518;-82
2021/04/18 02:19:26;;;;;;;35.42;20.40;;;9.50;99.90;;;;;;4936903;29;20046;-78
2021/04/18 02:21:51;;;;;;;33.72;20.50;;;9.40;99.90;;;;;;4954290;29;20035;-82
2021/04/18 02:24:17;;;;;;;30.08;20.48;;;9.40;99.90;;;;;;4953827;29;20417;-77
2021/04/18 02:26:43;;;;;;;31.13;19.90;;;9.30;99.90;;;;;;4953922;29;20361;-81
2021/04/18 02:29:08;;;;;;;30.52;20.15;;;9.30;99.90;;;;;;4953296;29;20380;-77
2021/04/18 02:31:34;;;;;;;32.60;20.25;;;9.30;99.90;;;;;;4953663;29;20102;-80
2021/04/18 02:34:00;;;;;;;31.15;19.95;;;9.30;99.90;;;;;;4953319;29;20126;-82
2021/04/18 02:36:26;;;;;;;31.55;19.40;;;9.30;99.90;;;;;;4953851;29;20055;-82
2021/04/18 02:38:52;;;;;;;27.95;19.92;;;9.30;99.90;;;;;;4962954;28;20049;-81
2021/04/18 02:41:17;;;;;;;31.38;20.10;;;9.30;99.90;;;;;;4953292;29;20035;-81
2021/04/18 02:43:43;;;;;;;29.83;20.38;;;9.20;99.90;;;;;;4953560;29;20043;-79
2021/04/18 02:46:09;;;;;;;31.45;20.15;;;9.20;99.90;;;;;;4952974;29;20111;-81
2021/04/18 02:48:35;;;;;;;31.13;19.95;;;9.20;99.90;;;;;;4953825;29;20042;-82
2021/04/18 02:51:01;;;;;;;31.17;20.40;;;9.20;99.90;;;;;;4953265;29;20996;-78
2021/04/18 02:53:27;;;;;;;27.95;19.05;;;9.20;99.90;;;;;;4953263;29;20043;-80
2021/04/18 02:55:52;;;;;;;32.35;20.23;;;9.20;99.90;;;;;;4953202;29;20503;-81
2021/04/18 02:58:18;;;;;;;31.38;21.35;;;9.20;99.90;;;;;;4953457;29;20043;-79
2021/04/18 03:00:44;;;;;;;35.83;20.08;;;9.20;99.90;;;;;;4953669;29;20047;-78
2021/04/18 03:03:09;;;;;;;36.17;19.42;;;9.20;99.90;;;;;;4953288;29;20133;-78
2021/04/18 03:05:35;;;;;;;28.02;18.63;;;9.20;99.90;;;;;;4953247;29;20032;-82
2021/04/18 03:08:01;;;;;;;26.48;19.13;;;9.20;99.90;;;;;;4956277;28;20047;-81
2021/04/18 03:10:28;;;;;;;28.60;19.05;;;9.20;99.90;;;;;;4957111;29;20113;-80
2021/04/18 03:12:54;;;;;;;33.40;19.90;;;9.20;99.90;;;;;;4956967;29;20047;-78
2021/04/18 03:15:20;;;;;;;26.88;18.55;;;9.20;99.90;;;;;;4956687;29;20395;-80
2021/04/18 03:17:46;;;;;;;31.35;20.33;;;9.20;99.90;;;;;;4956874;29;20150;-81
2021/04/18 03:20:12;;;;;;;29.00;18.42;;;9.20;99.90;;;;;;4957007;29;20159;-77
2021/04/18 03:22:38;;;;;;;39.58;20.00;;;9.10;99.90;;;;;;4939099;29;20038;-78
2021/04/18 03:25:05;;;;;;;34.75;18.77;;;9.10;99.90;;;;;;4956335;29;20031;-82
2021/04/18 03:27:30;;;;;;;33.88;20.25;;;9.10;99.90;;;;;;4956765;29;20443;-82
2021/04/18 03:29:56;;;;;;;35.75;18.58;;;9.10;99.90;;;;;;4956818;29;20031;-78
2021/04/18 03:32:22;;;;;;;28.45;18.63;;;9.10;99.90;;;;;;4956677;29;20047;-81
2021/04/18 03:34:48;;;;;;;34.75;19.27;;;9.10;99.90;;;;;;4956761;29;20031;-77
2021/04/18 03:37:13;;;;;;;25.58;18.13;;;9.10;99.90;;;;;;4956820;29;20103;-78
2021/04/18 03:39:40;;;;;;;28.58;18.88;;;9.10;99.90;;;;;;4956683;29;20465;-81
2021/04/18 03:42:07;;;;;;;28.48;18.52;;;9.10;99.90;;;;;;4956732;29;20448;-82
2021/04/18 03:44:33;;;;;;;28.73;18.75;;;9.10;99.90;;;;;;4956163;29;20043;-82
2021/04/18 03:46:59;;;;;;;27.15;18.95;;;9.10;99.90;;;;;;4956608;29;20035;-82
2021/04/18 03:49:25;;;;;;;28.38;17.60;;;9.10;99.90;;;;;;4956438;29;20038;-77
2021/04/18 03:51:50;;;;;;;30.42;18.23;;;9.20;99.90;;;;;;4956358;29;20062;-79
2021/04/18 03:54:18;;;;;;;28.50;17.92;;;9.10;99.90;;;;;;4956133;29;20377;-78
2021/04/18 03:56:43;;;;;;;28.13;18.00;;;9.10;99.90;;;;;;4955960;29;20055;-78
2021/04/18 03:59:09;;;;;;;26.05;17.50;;;9.10;99.90;;;;;;4956490;29;20031;-78
2021/04/18 04:01:35;;;;;;;25.30;18.23;;;9.10;99.90;;;;;;4956254;29;20040;-77
2021/04/18 04:04:00;;;;;;;32.40;18.48;;;9.10;99.90;;;;;;4955803;29;20035;-78
2021/04/18 04:06:26;;;;;;;25.35;17.50;;;9.10;99.90;;;;;;4956015;29;20397;-80
2021/04/18 04:08:52;;;;;;;26.45;18.00;;;9.10;99.90;;;;;;4955933;29;20027;-83
2021/04/18 04:11:17;;;;;;;26.02;17.95;;;9.00;99.90;;;;;;4956320;29;20195;-79
2021/04/18 04:13:43;;;;;;;30.38;18.58;;;9.00;99.90;;;;;;4955787;29;20102;-78
2021/04/18 04:16:09;;;;;;;25.98;18.25;;;9.00;99.90;;;;;;4956129;29;20031;-81
2021/04/18 04:18:35;;;;;;;31.67;17.90;;;9.10;99.90;;;;;;4955290;28;20047;-78
2021/04/18 04:21:00;;;;;;;24.67;16.50;;;9.10;99.90;;;;;;4955279;29;20031;-77
2021/04/18 04:23:27;;;;;;;27.83;19.48;;;9.10;99.90;;;;;;4955749;29;20067;-81
2021/04/18 04:25:52;;;;;;;26.33;18.73;;;9.10;99.90;;;;;;4938298;29;20077;-82
2021/04/18 04:28:18;;;;;;;29.85;17.90;;;9.10;99.90;;;;;;4964680;28;20483;-81
2021/04/18 04:30:44;;;;;;;26.08;18.25;;;9.20;99.90;;;;;;4966057;28;20062;-82
2021/04/18 04:33:09;;;;;;;25.77;17.63;;;9.20;99.90;;;;;;4958008;28;20063;-78
2021/04/18 04:35:39;;;;;;;27.67;18.70;;;9.20;99.90;;;;;;4955955;29;20473;-79
2021/04/18 04:38:05;;;;;;;27.30;17.65;;;9.30;99.90;;;;;;4963021;28;20114;-81
2021/04/18 04:40:30;;;;;;;24.40;16.58;;;9.30;99.90;;;;;;4955514;29;20135;-82
2021/04/18 04:42:56;;;;;;;27.38;17.88;;;9.30;99.90;;;;;;4955379;29;20027;-82
2021/04/18 04:45:22;;;;;;;26.45;17.58;;;9.30;99.90;;;;;;4963082;28;20082;-81
2021/04/18 04:47:47;;;;;;;27.17;17.10;;;9.40;99.90;;;;;;4955488;28;20074;-78
2021/04/18 04:50:13;;;;;;;27.63;17.58;;;9.50;99.90;;;;;;4955035;29;20027;-78
2021/04/18 04:52:39;;;;;;;25.95;17.08;;;9.50;99.90;;;;;;4954989;29;20539;-77
2021/04/18 04:55:05;;;;;;;24.77;16.67;;;9.60;99.90;;;;;;4955058;29;20031;-82
2021/04/18 04:57:31;;;;;;;24.88;16.83;;;9.70;99.90;;;;;;4954941;29;20043;-83
2021/04/18 04:59:57;;;;;;;31.85;17.38;;;9.80;99.90;;;;;;4954586;29;20043;-81
2021/04/18 05:02:22;;;;;;;27.35;16.52;;;9.80;99.90;;;;;;4955024;29;20100;-77
2021/04/18 05:04:48;;;;;;;25.85;15.93;;;10.00;99.90;;;;;;4955002;29;20037;-81
2021/04/18 05:07:14;;;;;;;28.80;16.60;;;10.00;99.90;;;;;;4954939;29;20019;-83
2021/04/18 05:09:40;;;;;;;25.33;16.17;;;10.10;99.90;;;;;;4955209;29;20392;-77
2021/04/18 05:12:08;;;;;;;26.63;16.77;;;10.20;99.90;;;;;;4954726;29;20565;-82
2021/04/18 05:14:34;;;;;;;21.65;15.70;;;10.30;99.90;;;;;;4956347;28;20039;-82
2021/04/18 05:16:59;;;;;;;25.92;15.77;;;10.60;99.90;;;;;;4968624;28;20050;-81
2021/04/18 05:19:25;;;;;;;24.17;15.73;;;10.90;99.90;;;;;;4964261;28;20492;-80
2021/04/18 05:21:51;;;;;;;20.60;14.98;;;11.50;99.90;;;;;;4961154;28;20031;-82
2021/04/18 05:24:17;;;;;;;22.85;15.90;;;12.20;99.90;;;;;;4954640;29;20051;-81
2021/04/18 05:26:43;;;;;;;27.33;16.20;;;12.70;99.90;;;;;;4962509;28;20035;-78
2021/04/18 05:29:08;;;;;;;21.55;15.43;;;13.20;99.90;;;;;;4954586;29;21167;-82
2021/04/18 05:31:34;;;;;;;23.88;15.77;;;13.40;99.90;;;;;;4953663;28;20078;-82
2021/04/18 05:34:00;;;;;;;25.30;15.50;;;13.90;99.90;;;;;;4965477;28;20046;-83
2021/04/18 05:36:26;;;;;;;23.60;14.40;;;14.50;99.00;;;;;;4954388;29;20050;-78
2021/04/18 05:38:52;;;;;;;20.13;14.25;;;15.10;98.10;;;;;;4954262;29;20114;-79
2021/04/18 05:41:18;;;;;;;21.10;14.60;;;15.40;97.10;;;;;;4936690;29;20034;-78
2021/04/18 05:43:44;;;;;;;21.02;13.93;;;16.00;96.10;;;;;;4954554;29;20114;-82
2021/04/18 05:46:09;;;;;;;18.73;12.95;;;16.80;95.00;;;;;;4954486;29;20094;-82
2021/04/18 05:48:35;;;;;;;18.13;13.18;;;17.50;93.70;;;;;;4954182;29;20042;-80
2021/04/18 05:51:01;;;;;;;17.60;12.73;;;18.40;92.30;;;;;;4953915;29;20027;-78
2021/04/18 05:53:26;;;;;;;17.77;12.07;;;19.50;90.80;;;;;;4953891;29;20160;-78
2021/04/18 05:55:52;;;;;;;16.25;12.27;;;20.00;88.20;;;;;;4954036;29;20480;-81
2021/04/18 05:58:18;;;;;;;16.50;12.65;;;20.30;86.30;;;;;;4953465;29;20115;-78
2021/04/18 06:00:44;;;;;;;18.90;12.27;;;20.90;84.10;;;;;;4953554;29;20039;-82
2021/04/18 06:03:10;;;;;;;17.77;12.15;;;20.90;81.50;;;;;;4936211;29;20392;-82
2021/04/18 06:05:36;;;;;;;15.02;12.32;;;20.80;81.20;;;;;;4953439;29;20071;-81
2021/04/18 06:08:02;;;;;;;15.13;11.02;;;21.10;81.00;;;;;;4953308;29;20137;-79
2021/04/18 06:10:28;;;;;;;16.65;11.52;;;21.90;79.20;;;;;;4953515;29;20421;-83
2021/04/18 06:12:53;;;;;;;16.55;10.38;;;22.40;77.10;;;;;;4953639;29;20184;-80
2021/04/18 06:15:19;;;;;;;15.43;11.13;;;23.00;76.10;;;;;;4954184;29;20035;-79
2021/04/18 06:17:45;;;;;;;16.90;12.00;;;23.40;74.00;;;;;;4953630;29;20075;-75
2021/04/18 06:20:11;;;;;;;14.40;10.52;;;23.40;73.20;;;;;;4953819;29;20034;-80
2021/04/18 06:22:37;;;;;;;17.75;11.20;;;23.60;71.80;;;;;;4953512;29;20543;-83
2021/04/18 06:25:05;;;;;;;16.95;10.93;;;22.30;72.20;;;;;;4954268;29;20035;-82
2021/04/18 06:27:31;;;;;;;18.70;11.93;;;21.40;74.70;;;;;;4953427;29;20338;-79
2021/04/18 06:29:57;;;;;;;14.93;11.07;;;21.30;74.70;;;;;;4955495;28;20114;-77
2021/04/18 06:32:23;;;;;;;17.42;12.63;;;21.50;75.00;;;;;;4961977;28;20386;-83
2021/04/18 06:34:48;;;;;;;14.32;11.80;;;21.80;75.00;;;;;;4956519;28;20049;-82
2021/04/18 06:37:14;;;;;;;16.42;11.48;;;22.30;73.40;;;;;;4955352;28;20024;-81
2021/04/18 06:39:40;;;;;;;15.43;11.05;;;22.80;72.40;;;;;;4957705;28;20038;-80
2021/04/18 06:42:06;;;;;;;15.40;11.02;;;23.40;71.40;;;;;;4956381;28;20027;-84
2021/04/18 06:44:33;;;;;;;16.17;11.45;;;23.90;70.30;;;;;;4953455;29;20086;-84
2021/04/18 06:47:00;;;;;;;15.77;10.13;;;23.70;69.00;;;;;;4953293;29;20115;-76
2021/04/18 06:49:27;;;;;;;16.70;10.68;;;23.70;69.40;;;;;;4953647;29;20025;-79
2021/04/18 06:51:53;;;;;;;14.65;10.77;;;23.40;69.30;;;;;;4953854;29;20093;-84
2021/04/18 06:54:19;;;;;;;15.32;11.50;;;23.50;69.10;;;;;;4953495;29;20110;-83
2021/04/18 06:56:45;;;;;;;17.20;11.27;;;21.70;70.30;;;;;;4944875;29;20031;-82
2021/04/18 06:59:11;;;;;;;14.98;11.93;;;21.40;72.30;;;;;;4953667;29;20030;-83
2021/04/18 07:01:37;;;;;;;16.17;11.32;;;20.60;72.70;;;;;;4953183;29;20039;-81
2021/04/18 07:04:17;;;;;;;16.67;11.70;;;19.50;74.80;;;;;;4953201;29;20036;-81
2021/04/18 07:06:51;;;;;;;16.85;11.70;;;19.00;75.90;;;;;;4952984;29;20416;-82
2021/04/18 07:09:20;;;;;;;19.48;11.77;;;18.40;78.30;;;;;;4953139;29;20110;-82
2021/04/18 07:11:56;;;;;;;14.75;11.75;;;18.60;78.10;;;;;;4953135;29;20071;-83
2021/04/18 07:14:25;;;;;;;17.05;11.30;;;19.50;77.20;;;;;;4949973;29;20054;-83
2021/04/18 07:16:53;;;;;;;15.93;11.77;;;19.90;75.50;;;;;;4951976;29;20036;-79
2021/04/18 07:19:25;;;;;;;14.82;10.68;;;19.40;75.30;;;;;;4961483;28;20050;-82
2021/04/18 07:21:56;;;;;;;15.10;10.73;;;19.20;76.60;;;;;;4957557;28;20027;-81
2021/04/18 07:24:23;;;;;;;16.48;11.23;;;19.50;76.00;;;;;;4953115;28;20085;-77
2021/04/18 07:27:04;;;;;;;16.52;10.98;;;18.80;77.10;;;;;;4955867;28;20030;-82
2021/04/18 07:29:32;;;;;;;22.33;11.80;;;18.60;77.70;;;;;;4939132;28;20073;-82
2021/04/18 07:31:59;;;;;;;22.30;11.73;;;17.90;79.40;;;;;;4956686;28;20051;-82
2021/04/18 07:34:35;;;;;;;17.08;11.43;;;17.60;81.00;;;;;;4959053;28;20023;-77
2021/04/18 07:37:15;;;;;;;14.60;11.20;;;18.10;79.80;;;;;;4959442;28;20069;-82
2021/04/18 07:39:58;;;;;;;15.75;11.23;;;17.20;81.30;;;;;;4957994;28;20111;-84
2021/04/18 07:42:36;;;;;;;21.13;12.60;;;16.50;83.20;;;;;;4955931;28;20489;-80
2021/04/18 07:45:05;;;;;;;16.50;12.10;;;15.90;85.40;;;;;;4956905;28;20035;-78
2021/04/18 07:47:35;;;;;;;16.27;12.07;;;15.50;85.50;;;;;;4947089;28;20109;-81
2021/04/18 07:50:04;;;;;;;17.10;12.13;;;14.90;87.10;;;;;;4950676;28;20055;-77
2021/04/18 07:52:32;;;;;;;21.42;12.43;;;14.40;88.10;;;;;;4950705;28;20047;-79
2021/04/18 07:54:59;;;;;;;16.38;11.45;;;14.30;89.40;;;;;;4941820;28;20036;-80
2021/04/18 07:57:25;;;;;;;18.70;11.70;;;14.40;90.00;;;;;;4966438;28;20445;-83
2021/04/18 07:59:51;;;;;;;21.00;12.73;;;14.40;90.00;;;;;;4957975;28;20080;-81
2021/04/18 08:02:20;;;;;;;23.83;12.35;;;14.20;89.20;;;;;;4958849;28;20486;-81
2021/04/18 08:04:48;;;;;;;18.42;11.95;;;13.90;90.30;;;;;;4961890;28;20089;-80
2021/04/18 08:07:15;;;;;;;17.20;12.13;;;13.50;90.40;;;;;;4954142;28;20057;-79
2021/04/18 08:09:41;;;;;;;15.50;11.40;;;13.40;90.60;;;;;;4953647;28;20039;-81
2021/04/18 08:12:16;;;;;;;17.45;11.88;;;13.20;90.80;;;;;;4957828;28;20130;-81
2021/04/18 08:14:48;;;;;;;17.23;12.27;;;13.20;91.00;;;;;;4954757;28;20452;-77
2021/04/18 08:17:16;;;;;;;20.00;12.82;;;12.90;91.20;;;;;;4943347;28;20158;-77
2021/04/18 08:20:00;;;;;;;17.50;11.73;;;12.80;91.50;;;;;;4954506;28;20051;-80
2021/04/18 08:22:58;;;;;;;16.52;11.48;;;12.80;91.60;;;;;;4951722;28;20036;-81
2021/04/18 08:25:24;;;;;;;17.85;11.35;;;12.90;91.90;;;;;;4946766;28;20035;-81
2021/04/18 08:28:12;;;;;;;16.92;11.38;;;12.90;91.50;;;;;;4954287;28;20051;-81
2021/04/18 08:31:00;;;;;;;17.27;11.55;;;12.80;91.70;;;;;;4957254;28;20090;-79
2021/04/18 08:33:56;;;;;;;18.45;11.50;;;12.70;91.80;;;;;;4947176;28;20039;-81
2021/04/18 08:36:27;;;;;;;21.13;12.65;;;12.60;91.90;;;;;;4940020;28;20035;-77
2021/04/18 08:39:04;;;;;;;21.50;12.07;;;12.60;92.10;;;;;;4958674;28;20403;-81
2021/04/18 08:41:51;;;;;;;17.20;11.35;;;12.60;92.10;;;;;;4956922;28;20035;-81
2021/04/18 08:44:21;;;;;;;15.35;12.07;;;12.60;92.80;;;;;;4956488;28;20496;-82
2021/04/18 08:46:56;;;;;;;16.27;11.68;;;12.70;92.10;;;;;;4962086;28;20035;-82
2021/04/18 08:49:38;;;;;;;16.27;10.82;;;12.60;92.10;;;;;;4960353;28;20024;-82
2021/04/18 08:52:08;;;;;;;16.73;11.00;;;12.60;92.10;;;;;;4957301;28;20046;-80
2021/04/18 08:54:42;;;;;;;17.48;11.35;;;12.60;92.20;;;;;;4954372;28;20035;-82
2021/04/18 08:57:13;;;;;;;17.73;12.07;;;12.60;92.20;;;;;;4953924;29;20031;-82
2021/04/18 08:59:41;;;;;;;25.70;12.65;;;12.70;92.40;;;;;;4957187;28;20049;-81
2021/04/18 09:02:12;;;;;;;15.50;11.43;;;12.70;92.40;;;;;;4959655;28;20039;-83
2021/04/18 09:04:49;;;;;;;14.52;10.85;;;12.80;92.40;;;;;;4957397;28;20031;-80
2021/04/18 09:07:24;;;;;;;18.83;13.45;;;12.80;92.40;;;;;;4964645;28;20031;-80
2021/04/18 09:09:51;;;;;;;19.00;12.80;;;12.80;92.20;;;;;;4955372;28;20095;-79
2021/04/18 09:12:18;;;;;;;19.05;13.00;;;12.80;92.50;;;;;;4953139;28;20098;-83
2021/04/18 09:14:47;;;;;;;22.88;13.43;;;12.70;92.60;;;;;;4952993;28;20039;-83
2021/04/18 09:17:17;;;;;;;18.02;12.85;;;12.70;92.80;;;;;;4951684;28;20121;-80
2021/04/18 09:19:54;;;;;;;22.05;13.07;;;12.70;92.40;;;;;;4952625;28;20035;-80
2021/04/18 09:22:23;;;;;;;18.85;13.13;;;12.80;92.50;;;;;;4958715;28;20046;-78
2021/04/18 09:24:51;;;;;;;21.30;13.85;;;12.80;92.70;;;;;;4954474;28;20042;-81
2021/04/18 09:27:26;;;;;;;17.02;12.60;;;12.80;92.30;;;;;;4959746;28;20027;-79
2021/04/18 09:30:05;;;;;;;18.88;12.55;;;12.80;92.60;;;;;;4959833;28;20035;-80
2021/04/18 09:32:33;;;;;;;19.63;13.30;;;12.80;92.80;;;;;;4951979;29;20085;-79
2021/04/18 09:34:59;;;;;;;21.67;14.32;;;12.80;92.80;;;;;;4951913;29;20020;-79
2021/04/18 09:37:35;;;;;;;21.38;16.35;;;12.70;93.00;;;;;;4949349;28;20046;-80
2021/04/18 09:40:05;;;;;;;23.17;16.08;;;12.60;92.90;;;;;;4954820;28;20558;-83
2021/04/18 09:42:33;;;;;;;19.77;15.10;;;12.50;93.00;;;;;;4959458;28;20471;-81
2021/04/18 09:45:06;;;;;;;23.17;15.20;;;12.40;93.20;;;;;;4953578;28;20122;-81
2021/04/18 09:47:32;;;;;;;20.23;15.38;;;12.40;93.40;;;;;;4953570;29;20079;-83
2021/04/18 09:50:00;;;;;;;18.98;14.38;;;12.40;93.40;;;;;;4954211;29;20408;-84
2021/04/18 09:52:27;;;;;;;19.50;13.95;;;12.40;94.00;;;;;;4949798;28;20725;-80
2021/04/18 09:54:52;;;;;;;19.92;14.63;;;12.50;93.60;;;;;;4953204;29;20059;-80
2021/04/18 09:57:22;;;;;;;23.95;13.80;;;12.50;93.60;;;;;;4952986;28;20031;-78
2021/04/18 10:00:08;;;;;;;29.98;23.63;;;12.60;93.60;;;;;;4954381;28;20042;-82
2021/04/18 10:02:34;;;;;;;22.63;15.60;;;12.70;93.60;;;;;;4951936;28;20035;-79
2021/04/18 10:05:27;;;;;;;33.00;23.73;;;12.70;93.30;;;;;;4954588;28;20043;-78
2021/04/18 10:08:16;;;;;;;22.75;17.98;;;12.70;93.30;;;;;;4931860;29;20031;-83
2021/04/18 10:10:42;;;;;;;18.33;13.15;;;12.80;93.20;;;;;;4952918;28;20039;-80
2021/04/18 10:13:08;;;;;;;26.85;21.10;;;12.90;93.10;;;;;;4955768;28;20051;-80
2021/04/18 10:15:34;;;;;;;20.35;16.13;;;12.90;93.10;;;;;;4952584;28;20147;-81
2021/04/18 10:18:10;;;;;;;15.95;11.75;;;12.90;93.30;;;;;;4952333;29;20500;-82
2021/04/18 10:20:36;;;;;;;18.10;13.07;;;12.90;93.00;;;;;;4953132;29;20039;-83
2021/04/18 10:23:09;;;;;;;15.52;11.80;;;12.90;93.00;;;;;;4954304;28;20488;-79
2021/04/18 10:25:37;;;;;;;17.00;12.13;;;12.90;93.00;;;;;;4952815;29;20043;-82
2021/04/18 10:28:03;;;;;;;17.20;11.63;;;13.00;93.00;;;;;;4953380;29;20034;-81
2021/04/18 10:30:29;;;;;;;18.88;14.35;;;13.00;92.70;;;;;;4951764;28;20035;-80
2021/04/18 10:32:55;;;;;;;22.48;13.20;;;13.00;92.80;;;;;;4947239;28;20051;-83
2021/04/18 10:35:21;;;;;;;16.95;13.07;;;13.00;92.70;;;;;;4942729;29;20647;-82
2021/04/18 10:37:47;;;;;;;19.05;12.25;;;13.10;92.50;;;;;;4948959;28;20039;-81
2021/04/18 10:40:15;;;;;;;20.75;13.25;;;13.00;92.70;;;;;;4948219;28;20059;-80
2021/04/18 10:42:41;;;;;;;17.10;13.65;;;13.00;92.60;;;;;;4936991;29;20055;-81
2021/04/18 10:45:09;;;;;;;17.55;12.65;;;13.10;92.90;;;;;;4934196;29;20042;-80
2021/04/18 10:47:35;;;;;;;16.40;11.60;;;13.10;92.70;;;;;;4921878;29;20040;-80
2021/04/18 10:50:03;;;;;;;18.52;12.00;;;13.10;92.90;;;;;;4949224;28;20031;-79
2021/04/18 10:52:29;;;;;;;16.73;12.10;;;13.10;92.80;;;;;;4958017;28;20069;-79
2021/04/18 10:54:55;;;;;;;16.17;12.10;;;13.00;92.70;;;;;;4954103;28;20438;-77
2021/04/18 10:57:21;;;;;;;15.32;11.48;;;13.00;93.00;;;;;;4953831;28;20035;-79
2021/04/18 10:59:46;;;;;;;19.65;11.18;;;13.00;93.00;;;;;;4956351;28;20047;-82
2021/04/18 11:02:12;;;;;;;19.23;12.00;;;13.00;93.00;;;;;;4953477;28;20070;-80
2021/04/18 11:04:38;;;;;;;14.77;10.60;;;12.90;93.30;;;;;;4935001;29;20121;-81
2021/04/18 11:07:04;;;;;;;14.95;10.60;;;13.00;93.20;;;;;;4936115;29;20031;-82
2021/04/18 11:09:30;;;;;;;15.40;10.77;;;13.00;93.10;;;;;;4953488;29;20043;-77
2021/04/18 11:11:56;;;;;;;15.45;10.90;;;13.00;93.40;;;;;;4935977;29;20407;-77
2021/04/18 11:14:22;;;;;;;22.13;14.50;;;12.90;93.20;;;;;;4952808;29;20039;-77
2021/04/18 11:16:48;;;;;;;14.27;11.00;;;12.90;93.40;;;;;;4953099;29;20413;-78
2021/04/18 11:19:15;;;;;;;14.80;8.95;;;12.80;93.30;;;;;;4952112;29;20102;-79
2021/04/18 11:21:41;;;;;;;13.70;9.68;;;12.80;92.90;;;;;;4952289;29;20078;-82
2021/04/18 11:24:07;;;;;;;16.58;11.70;;;12.70;93.10;;;;;;4951960;28;20035;-78
2021/04/18 11:26:32;;;;;;;16.00;11.10;;;12.80;93.20;;;;;;4953329;28;20035;-79
2021/04/18 11:28:58;;;;;;;13.80;10.48;;;12.80;92.90;;;;;;4954712;28;20392;-77
2021/04/18 11:31:25;;;;;;;17.95;11.20;;;12.80;92.70;;;;;;4957594;28;20038;-81
2021/04/18 11:33:51;;;;;;;14.95;10.70;;;12.80;92.60;;;;;;4960846;28;20515;-82
2021/04/18 11:36:18;;;;;;;13.02;8.63;;;12.90;92.50;;;;;;4956105;28;20031;-78
2021/04/18 11:38:44;;;;;;;14.48;10.30;;;12.90;92.30;;;;;;4956215;28;20035;-77
2021/04/18 11:41:10;;;;;;;17.60;8.82;;;12.90;92.60;;;;;;4955022;29;20039;-79
2021/04/18 11:43:36;;;;;;;13.40;9.57;;;13.00;92.30;;;;;;4961734;28;20069;-81
2021/04/18 11:46:02;;;;;;;15.25;9.50;;;13.10;92.50;;;;;;4960047;28;20476;-78
2021/04/18 11:48:28;;;;;;;11.55;8.40;;;13.20;92.60;;;;;;4955256;29;20098;-76
2021/04/18 11:50:57;;;;;;;12.70;9.88;;;13.20;91.80;;;;;;4955178;29;20110;-81
2021/04/18 11:53:23;;;;;;;13.68;9.35;;;13.10;92.20;;;;;;4954877;29;20059;-78
2021/04/18 11:55:49;;;;;;;12.70;8.95;;;13.20;92.00;;;;;;4954438;29;20527;-76
2021/04/18 11:58:15;;;;;;;11.07;8.70;;;13.20;91.80;;;;;;4954502;29;20474;-77
2021/04/18 12:00:41;;;;;;;13.85;8.38;;;13.20;91.80;;;;;;4956603;28;20098;-74
2021/04/18 12:03:06;;;;;;;11.90;8.65;;;13.30;91.60;;;;;;4962909;28;20042;-78
2021/04/18 12:05:33;;;;;;;11.52;7.95;;;13.40;91.50;;;;;;4955223;29;20045;-76
2021/04/18 12:07:59;;;;;;;9.95;7.65;;;13.40;91.50;;;;;;4954820;29;20484;-78
2021/04/18 12:10:25;;;;;;;11.73;8.60;;;13.50;91.70;;;;;;4954698;29;20027;-76
2021/04/18 12:12:51;;;;;;;15.50;8.52;;;13.60;91.30;;;;;;4955256;29;20131;-74
2021/04/18 12:15:17;;;;;;;9.48;7.68;;;13.70;91.30;;;;;;4955205;29;20489;-78
2021/04/18 12:17:43;;;;;;;11.65;7.97;;;13.80;91.20;;;;;;4954372;29;20165;-76
2021/04/18 12:20:11;;;;;;;9.65;7.03;;;13.90;90.60;;;;;;4954603;29;20384;-77
2021/04/18 12:22:37;;;;;;;9.15;6.00;;;14.00;90.90;;;;;;4954904;29;20062;-76
2021/04/18 12:25:05;;;;;;;9.68;6.90;;;14.20;90.90;;;;;;4955216;29;20055;-76
2021/04/18 12:27:31;;;;;;;12.02;8.25;;;14.40;90.80;;;;;;4951745;28;20110;-76
2021/04/18 12:29:56;;;;;;;9.48;6.80;;;14.20;90.90;;;;;;4946111;29;20139;-78
2021/04/18 12:32:22;;;;;;;9.13;7.47;;;14.30;91.00;;;;;;4954062;29;20126;-79